Weather observations for the past three days for
La Veta Mountain, La Veta Pass
Metric (Imperial)
Date Time (mdt) Wind (kph) Vis. (km) Weather Sky Cond. Temperature (ºC) Relative Humidity Wind Chill (°C) Heat Index (°C) Pressure Precipitation (cm)
Air Dwpt 6 hour altimeter (cm) sea level (mb) 1 hr 3 hr 6 hr
Max. Min.
07 17:55 W 19 G 31 16.09 Fair CLR 8 -7 34% 5 76.96 0.0
07 17:35 W 13 16.09 Fair CLR 8 -7 34% 6 76.96 0.0
07 17:15 W 7 16.09 Partly Cloudy SCT070 8 -5 40% 7 76.99 0.0
07 16:55 W 7 16.09 Fair CLR 8 -7 34% 7 76.99 0.0
07 16:35 W 9 16.09 Fair CLR 8 -7 34% 7 76.99 0.0
07 16:15 W 15 16.09 Fair CLR 8 -8 32% 6 76.99 0.0
07 15:55 NW 11 16.09 Fair CLR 7 -8 34% 5 77.01 0.0
07 15:35 W 13 16.09 Fair CLR 7 -7 37% 5 77.01 0.0
07 15:15 W 11 16.09 Fair CLR 7 -7 37% 5 77.04 0.0
07 14:55 W 17 G 28 16.09 Fair CLR 6 -7 39% 3 77.04 0.0
07 14:35 W 19 G 31 16.09 Fair CLR 6 -10 31% 3 77.04 0.0
07 14:15 W 15 G 30 16.09 Fair CLR 5 -10 33% 2 77.06 0.0
07 13:55 SW 19 16.09 Fair CLR 5 -13 26% 2 77.09 0.0
07 13:35 W 20 16.09 Fair CLR 3 -15 26% -1 77.09 0.0
07 13:15 W 22 16.09 Fair CLR 3 -15 26% -1 77.09 0.0
07 12:55 W 20 G 31 16.09 Fair CLR 3 -14 28% -1 77.09 0.0
07 12:35 W 26 16.09 Fair CLR 2 -13 32% -3 77.09 0.0
07 12:15 W 24 16.09 Fair CLR 1 -13 35% -4 77.11 0.0
07 11:55 W 28 16.09 Fair CLR 1 -12 38% -5 77.11 0.0
07 11:35 W 28 16.09 Fair CLR 0 -8 55% -6 77.11 0.0
07 11:15 W 30 16.09 Fair CLR 0 -7 60% -6 77.09 0.0
07 10:55 W 33 16.09 Fair and Breezy CLR 0 -8 55% -6 77.06 0.0
07 10:35 W 31 16.09 Fair CLR -1 -8 59% -7 77.06 0.0
07 10:15 W 26 16.09 Fair CLR -1 -9 55% -7 77.09 0.0
07 09:55 W 33 16.09 Fair and Breezy CLR -2 -9 59% -9 77.06 0.0
07 09:35 W 31 G 37 16.09 Fair CLR -2 -7 69% -9 77.09 0.0
07 09:15 W 26 16.09 Fair CLR -3 -7 74% -9 77.09 0.0
07 08:55 W 28 16.09 Fair CLR -4 -7 80% -11 77.11 0.0
07 08:35 W 28 16.09 Fair CLR -5 -7 86% -12 77.09 0.0
07 08:15 W 26 16.09 Fair CLR -5 -8 80% -12 77.11 0.0
07 07:55 W 24 16.09 Fair CLR -5 -7 86% -12 77.11 0.0
07 07:35 W 26 16.09 Fair CLR -6 -8 86% -13 77.09 0.0
07 07:15 W 26 16.09 Fair CLR -5 -9 74% -12 77.09 0.0
07 06:55 W 28 16.09 Fair CLR -6 -8 86% -13 77.06 0.0
07 06:35 W 26 16.09 Fair CLR -6 -9 80% -13 77.04 0.0
07 06:15 W 26 16.09 Fair CLR -6 -8 86% -13 77.04 0.0
07 05:55 W 22 16.09 Fair CLR -6 -8 86% -13 77.04 0.0
07 05:35 W 26 16.09 Fair CLR -6 -8 86% -13 77.04 0.0
07 05:15 W 26 16.09 Fair CLR -6 -8 86% -13 77.04 0.0
07 04:55 W 20 16.09 Fair CLR -6 -7 93% -12 77.04 0.0
07 04:35 W 20 16.09 Fair CLR -6 -7 93% -12 77.04 0.0
07 04:15 W 24 16.09 Fair CLR -6 -7 93% -13 77.04 0.0
07 03:55 W 26 16.09 Fair CLR -6 -7 93% -13 77.04 0.0
07 03:35 W 26 16.09 Fair CLR -5 -6 93% -12 77.04 0.0
07 03:15 W 26 16.09 Fair CLR -5 -6 93% -12 77.01 0.0
07 02:55 W 24 16.09 Fair CLR -5 -6 93% -12 77.01 0.0
07 02:35 W 26 16.09 Fair CLR -5 -6 93% -12 77.01 0.0
07 02:15 W 26 16.09 Fair CLR -5 -6 93% -12 76.99 0.0
07 01:55 W 24 16.09 Fair CLR -5 -6 93% -12 77.01 0.0
07 01:35 W 22 16.09 Fair CLR -5 -6 93% -11 77.04 0.0
07 01:15 W 24 16.09 Fair CLR -5 -6 93% -12 77.04 0.0
07 00:55 W 26 16.09 Fair CLR -5 -5 100% -12 77.04 0.0
07 00:35 W 26 16.09 Fair CLR -5 -5 100% -12 77.01 0.0
07 00:15 W 28 4.02 Fog/Mist SCT001 -5 -5 100% -12 77.01 0.0
06 23:55 W 26 0.80 Freezing Fog BKN001 -5 -5 100% -12 76.99 0.0
06 23:35 W 26 3.22 Fog/Mist SCT002 -5 -5 100% -12 76.96 0.0
06 23:15 W 28 4.02 Fog/Mist SCT002 -4 -5 93% -11 76.96 0.0
06 22:55 W 24 4.02 Fog/Mist BKN002 -4 -5 93% -10 76.94 0.0
06 22:35 W 22 0.80 Freezing Fog OVC002 -4 -5 93% -10 76.94 0.0
06 22:15 W 22 0.40 Freezing Fog OVC002 -4 -5 93% -10 76.94 0.0
06 21:55 W 22 0.80 Freezing Fog OVC002 -5 -6 93% -11 76.94 0.0
06 21:35 W 22 0.40 Freezing Fog OVC002 -5 -6 93% -11 76.89 0.0
06 21:15 W 22 11.27 Overcast OVC002 -5 -6 93% -11 76.89 0.0
06 20:55 W 22 16.09 Partly Cloudy SCT002 SCT006 -6 -6 100% -13 76.84 0.0
06 20:35 W 15 16.09 Fair CLR -6 -6 100% -11 76.89 0.0
06 20:15 W 13 16.09 Fair CLR -6 -7 93% -11 76.84 0.0
06 19:55 W 13 16.09 Fair CLR -6 -7 93% -11 76.84 0.0
06 19:35 W 9 16.09 Partly Cloudy SCT040 -6 -7 93% -10 76.84 0.0
06 19:15 W 7 16.09 Mostly Cloudy BKN040 BKN048 -5 -6 93% -8 76.84 0.0
06 18:55 W 6 16.09 Partly Cloudy SCT042 SCT048 SCT060 -6 -6 100% 76.81 0.0
06 18:35 N 7 16.09 Mostly Cloudy SCT050 BKN055 -6 -7 93% -9 76.78 0.0
06 18:15 N 9 16.09 Partly Cloudy SCT055 SCT120 -6 -7 93% -10 76.78 0.0
06 17:55 NE 6 16.09 Partly Cloudy SCT120 -6 -7 93% 76.78 0.0
06 17:35 NE 7 1.61 Fog/Mist BKN001 BKN050 OVC110 -6 -7 93% -9 76.78 0.0
06 17:15 E 7 16.09 Partly Cloudy SCT001 SCT095 SCT120 -6 -7 93% -9 76.73 0.0
06 16:55 E 6 0.40 Freezing Fog OVC001 -6 -7 93% 76.71 0.0
06 16:35 E 7 0.80 Freezing Fog OVC001 -6 -7 93% -9 76.66 0.0
06 16:15 E 6 1.21 Fog/Mist OVC001 -6 -7 93% 76.68 0.0
06 15:55 E 6 0.40 Light Snow OVC001 -7 -7 100% 76.71 0.0 0.05
06 15:35 E 11 0.24 Light Snow OVC001 -7 -8 93% -12 76.66 0.0 0.03
06 15:15 E 11 0.24 Freezing Fog OVC001 -7 -8 93% -12 76.71 0.0 0.03
06 14:55 E 11 0.40 Light Snow OVC001 -7 -8 93% -12 76.66 0.0 0.05
06 14:35 Calm 0.80 Light Snow OVC001 -7 -8 93% 76.66 0.0 0.03
06 14:15 Calm 0.40 Snow OVC001 -7 -8 93% 76.66 0.0
06 13:55 Calm 0.40 Snow OVC001 -7 -8 93% 76.63 0.0 0.28
06 13:35 Calm 0.24 Heavy Snow OVC001 -7 -8 93% 76.66 0.0 0.2
06 13:15 E 11 0.24 Heavy Snow OVC001 -7 -8 93% -12 76.61 0.0 0.05
06 12:55 Calm 0.24 Heavy Snow OVC001 -7 -8 93% 76.61 0.0 0.05
06 12:35 Calm 0.24 Heavy Snow OVC001 -7 -8 93% 76.56 0.0 0.05
06 12:15 E 15 G 35 0.24 Snow OVC001 -6 -7 93% -11 76.5 0.0 0.03
06 11:55 E 19 G 28 0.24 Light Snow OVC001 -6 -7 93% -12 76.53 0.0 0.05
06 11:35 E 13 0.24 Snow OVC001 -6 -7 93% -11 76.5 0.0 0.03
06 11:15 E 13 0.40 Light Snow NULL -6 -7 93% -11 76.53 0.0
06 10:55 E 11 0.40 Light Snow NULL -7 -7 100% -12 76.5 0.0 0.03
06 10:15 E 13 0.40 Light Snow NULL -7 -8 93% -12 76.48 0.0
06 09:55 Calm 0.40 Snow OVC001 -7 -8 93% 76.5 0.0 0.15
06 09:35 Calm 0.24 Snow OVC001 -7 -8 93% 76.5 0.0 0.1
06 09:15 Calm 0.24 Heavy Snow OVC001 -7 -8 93% 76.48 0.0 0.03
06 08:55 E 24 0.24 Heavy Snow OVC001 -7 -8 93% -14 76.48 0.0 0.05
06 08:35 Calm 0.24 Snow OVC001 -7 -8 93% 76.48 0.0 0.03
06 08:15 E 17 0.24 Heavy Snow OVC001 -7 -8 93% -13 76.45 0.0
06 07:55 E 13 0.24 Snow OVC001 -7 -8 93% -12 76.45 0.0 0.03
06 07:35 Calm 0.24 Heavy Snow OVC001 -7 -9 86% 76.45 0.0
06 07:15 E 19 0.24 Heavy Snow OVC001 -7 -12 68% -13 76.45 0.0
06 06:55 E 11 0.24 Snow OVC001 -6 -11 68% -10 76.43 0.0
06 06:35 E 7 0.24 Light Snow OVC001 -6 -10 74% -9 76.4 0.0
06 06:15 E 7 0.24 Light Snow OVC001 -6 -10 74% -9 76.4 0.0
06 05:55 E 7 0.24 Heavy Snow OVC001 -6 -7 93% -9 76.38 0.0
06 05:35 E 6 0.80 Freezing Fog OVC006 -5 -6 93% 76.35 0.0
06 05:15 SW 9 2.82 Light Snow OVC001 -3 -5 86% -6 76.33 0.0
06 04:55 Calm 1.61 Light Snow OVC001 -3 -4 93% 76.33 0.0 0.1
06 04:35 SW 7 1.61 Light Snow OVC003 -2 -3 93% -4 76.33 0.0 0.05
06 04:15 Calm 2.01 Light Snow OVC003 -2 -3 93% 76.35 0.0
06 03:55 SW 13 6.44 Light Snow SCT002 BKN014 OVC025 -3 -3 100% -7 76.33 0.0
06 03:35 SW 11 2.01 Light Snow OVC002 -2 -3 93% -6 76.33 0.0
06 03:15 SW 13 1.21 Light Snow OVC002 -3 -3 100% -7 76.33 0.0
06 02:55 SW 11 0.40 Light Snow OVC002 -3 -3 100% -7 76.35 0.0
06 02:35 SW 13 G 30 1.21 Light Snow OVC002 -2 -2 100% -6 76.38 0.0
06 02:15 SW 22 G 33 1.21 Light Snow OVC002 -2 -2 100% -8 76.38 0.0
06 01:55 SW 17 1.61 Light Snow OVC004 -2 -2 100% -7 76.38 0.0
06 01:35 SW 11 0.80 Snow OVC004 -2 -2 100% -6 76.38 0.0
06 01:15 SW 15 G 28 4.83 Light Snow OVC004 -2 -2 100% -6 76.38 0.0
06 00:55 W 11 8.05 Light Snow BKN002 BKN011 OVC060 -2 -2 100% -6 76.4 0.0 0.2
06 00:35 W 13 1.21 Light Snow OVC002 -2 -3 93% -6 76.43 0.0 0.2
06 00:15 W 9 0.80 Snow OVC002 -2 -3 93% -5 76.4 0.0 0.13
05 23:55 NE 6 0.40 Heavy Snow OVC002 -4 -5 93% 76.43 0.0
05 23:35 Calm 0.40 Light Snow OVC002 -3 -3 100% 76.4 0.0
05 23:15 SW 13 0.80 Light Snow OVC002 -2 -2 100% -6 76.4 0.0
05 22:55 SW 11 G 30 2.01 Light Snow SCT004 OVC009 -2 -3 93% -6 76.4 0.0
05 22:35 SW 11 16.09 Overcast BKN016 BKN021 OVC028 -1 -3 86% -4 76.4 0.0
05 22:15 SW 11 16.09 Overcast SCT022 SCT029 OVC037 -1 -3 86% -4 76.4 0.0
05 21:55 W 11 16.09 Overcast BKN022 BKN030 OVC035 -1 -2 93% -4 76.38 0.0
05 21:35 W 11 16.09 Overcast SCT008 SCT013 OVC020 -1 -2 93% -4 76.38 0.0
05 21:15 SW 15 G 26 11.27 Overcast SCT003 BKN008 OVC020 -1 -2 93% -5 76.33 0.0
05 20:55 SW 13 1.61 Unknown Precip BKN003 OVC006 -1 -2 93% -5 76.33 0.0 0.03
05 20:35 W 15 3.22 Light Snow BKN009 OVC017 -2 -2 100% -6 76.33 0.0 0.03
05 20:15 W 9 16.09 Unknown Precip SCT020 SCT031 BKN060 -1 -2 93% -4 76.33 0.0 0.03
05 19:55 W 9 16.09 Partly Cloudy SCT043 SCT055 SCT120 -1 -2 93% -4 76.28 0.0 0.18
05 19:35 S 6 1.21 Fog/Mist BKN001 OVC043 -2 -3 93% 76.28 0.0 0.13
05 19:15 E 7 0.24 Light Snow OVC001 -2 -7 69% -4 76.28 0.0 0.08
05 18:55 E 9 0.24 Snow OVC001 -2 -6 74% -5 76.28 0.0 0.23
05 18:35 E 13 0.24 Heavy Snow OVC001 -2 -6 74% -6 76.28 0.0 0.08
05 18:15 E 9 0.24 Snow NULL -1 -6 69% -4 76.28 0.0
05 17:55 NE 15 G 33 0.24 Heavy Snow OVC002 -2 -6 74% -6 76.23 0.0
05 17:35 E 11 0.24 Heavy Snow OVC002 -1 -6 69% -4 76.17 0.0
05 17:15 E 15 0.24 Heavy Snow OVC002 -1 -6 69% -5 76.15 0.0
05 16:55 E 13 0.24 Heavy Snow OVC002 -1 -6 69% -5 76.17 0.0
05 16:35 E 15 0.24 Heavy Snow OVC002 0 -6 64% -4 76.23 0.0
05 16:15 E 7 0.24 Light Snow OVC002 0 -5 69% -2 76.25 0.0
05 15:55 E 9 0.24 Heavy Snow OVC002 0 -5 69% -3 76.28 0.0
05 15:35 E 7 0.24 Light Snow OVC002 0 -5 69% -2 76.33 0.0
05 15:15 E 9 0.24 Heavy Snow OVC002 0 -5 69% -3 76.33 0.0
05 14:55 E 13 0.24 Snow OVC002 0 -5 69% -4 76.33 0.0
05 14:35 E 13 16.09 Overcast BKN002 BKN006 OVC050 1 -6 60% -2 76.33 0.0
05 14:15 E 17 16.09 Overcast SCT006 BKN048 OVC060 3 -6 52% -1 76.33 0.0
05 13:55 E 9 16.09 Overcast SCT014 BKN045 OVC055 3 -7 48% 1 76.35 0.0
05 13:35 E 6 16.09 Mostly Cloudy SCT014 SCT039 BKN048 5 -7 42% 76.38 0.0
05 13:15 S 9 16.09 Overcast SCT020 BKN048 OVC060 3 -10 38% 1 76.4 0.0
05 12:55 S 6 16.09 Overcast SCT025 SCT034 OVC043 3 -7 48% 76.4 0.0
05 12:35 Calm 16.09 Overcast SCT031 BKN040 OVC049 3 -12 33% 76.43 0.0
05 12:15 E 11 16.09 Overcast SCT014 BKN047 OVC060 3 -8 45% 0 76.43 0.0
05 11:55 E 9 16.09 Overcast SCT012 BKN047 OVC070 2 -6 56% -0 76.43 0.0
05 11:35 Calm 16.09 Overcast SCT048 BKN075 OVC095 3 -8 45% 76.43 0.0
05 11:15 N 7 16.09 Overcast BKN080 OVC095 3 -6 52% 1 76.43 0.0
05 10:55 NE 7 16.09 Overcast SCT075 OVC090 2 -6 56% 0 76.45 0.0
05 10:35 Calm 16.09 Overcast OVC090 2 -7 52% 76.45 0.0
05 10:15 Calm 16.09 Overcast OVC090 4 -11 33% 76.45 0.0
05 09:55 W 13 16.09 Overcast OVC100 3 -14 28% 0 76.45 0.0
05 09:35 W 11 16.09 Overcast OVC110 3 -14 28% 0 76.45 0.0
05 09:15 W 15 16.09 Overcast OVC110 3 -14 28% -0 76.45 0.0
05 08:55 W 17 16.09 Mostly Cloudy BKN110 2 -15 27% -2 76.45 0.0
05 08:35 W 15 16.09 Mostly Cloudy BKN120 2 -15 27% -2 76.48 0.0
05 08:15 W 15 16.09 Mostly Cloudy BKN110 2 -15 27% -2 76.48 0.0
05 07:55 SW 17 16.09 Partly Cloudy SCT120 2 -15 27% -2 76.5 0.0
05 07:35 SW 11 16.09 Fair CLR 2 -15 27% -1 76.5 0.0
05 07:15 SW 11 16.09 Fair CLR 2 -15 27% -1 76.48 0.0
05 06:55 SW 13 16.09 Partly Cloudy SCT120 1 -16 27% -2 76.45 0.0
05 06:35 SW 17 16.09 Partly Cloudy SCT120 1 -16 27% -3 76.45 0.0
05 06:15 SW 13 16.09 Partly Cloudy SCT120 1 -15 29% -2 76.45 0.0
05 05:55 SW 13 16.09 Fair CLR 1 -13 35% -2 76.45 0.0
05 05:35 SW 11 16.09 Fair CLR 0 -10 47% -3 76.45 0.0
05 05:15 Calm 8.05 Fair with Haze CLR 0 -6 64% 76.45 0.0
05 04:55 SW 6 16.09 Fair CLR 1 -14 32% 76.45 0.0
05 04:35 W 11 16.09 Fair CLR 2 -12 35% -1 76.45 0.0
05 04:15 W 11 16.09 Fair CLR 1 -10 44% -2 76.48 0.0
05 03:55 W 6 16.09 Fair CLR 1 -9 48% 76.5 0.0
05 03:35 Calm 16.09 Fair CLR 2 -9 44% 76.5 0.0
05 03:15 Calm 16.09 Fair CLR 0 -5 69% 76.5 0.0
05 02:55 E 6 16.09 Fair CLR 0 -5 69% 76.56 0.0
05 02:35 E 6 16.09 Fair CLR 0 -5 69% 76.56 0.0
05 02:15 E 7 16.09 Fair CLR 0 -6 64% -2 76.56 0.0
05 01:55 Calm 16.09 Fair CLR 0 -6 64% 76.58 0.0
05 01:35 Calm 16.09 Fair CLR 1 -6 60% 76.61 0.0
05 01:15 SE 6 16.09 Fair CLR 1 -6 60% 76.61 0.0
05 01:00 SE 6 16.09 Fair CLR 0 -6 64% 76.61 0.0
05 00:35 E 6 16.09 Fair CLR 1 -7 56% 76.61 0.0
05 00:15 NE 9 16.09 Fair CLR 2 -12 35% -0 76.61 0.0
05 00:00 W 7 16.09 Fair CLR 5 -18 17% 4 76.61 0.0
04 23:35 SW 11 16.09 Fair CLR 5 -18 17% 3 76.61 0.0
04 23:15 W 19 16.09 Fair CLR 5 -19 16% 2 76.61 0.0
04 22:55 W 15 16.09 Fair CLR 5 -20 14% 2 76.63 0.0
04 22:35 W 9 16.09 Fair CLR 5 -20 14% 3 76.66 0.0
04 22:15 W 7 16.09 Fair CLR 5 -20 14% 4 76.63 0.0
04 21:55 W 15 16.09 Fair CLR 5 -20 14% 2 76.61 0.0
04 21:35 W 20 G 33 16.09 Fair CLR 6 -20 14% 3 76.56 0.0
04 21:15 W 26 G 41 16.09 Fair CLR 6 -18 16% 2 76.5 0.0
04 20:55 W 24 G 41 16.09 Fair CLR 6 -20 14% 2 76.48 0.0
04 20:35 W 26 G 33 16.09 Fair CLR 6 -19 15% 2 76.5 0.0
04 20:15 W 22 G 33 16.09 Fair CLR 6 -20 14% 2 76.53 0.0
04 19:55 W 17 G 31 16.09 Fair CLR 7 -20 13% 4 76.5 0.0
04 19:35 W 24 G 35 16.09 Fair CLR 7 -20 13% 4 76.5 0.0
04 19:15 W 22 G 43 16.09 Fair CLR 7 -20 13% 4 76.45 0.0
04 18:55 W 22 G 37 16.09 Fair CLR 7 -20 13% 4 76.45 0.0
04 18:35 W 26 G 43 16.09 Fair CLR 8 -20 12% 5 76.43 0.0
04 18:15 W 24 G 35 16.09 Fair CLR 8 -18 14% 5 76.45 0.0
Date Time (mdt) Wind (kph) Vis. (km) Weather Sky Cond. Air Dwpt Max. Min. Relative Humidity Wind Chill (°C) Heat Index (°C) altimeter (cm) sea level (mb) 1 hr 3 hr 6 hr
6 hour
Temperature (ºC) Pressure Precipitation (cm)